Smithville, New Jersey
Current Conditions -  °F | °C
As of 11:54 AM on Friday 19 Dec 2014 (Local Time) from KACY Reporting Station
Overcast Overcast  
Wind Chill: 31°   Ceiling: 3400
Heat Index: 39°   Visibility: 10mi
Dew Point: 25°   Wind: 13mph
Humidity: 57%   Direction: 310°NW
Pressure: 30.06"   Gusts: NA
Location:  39.4315°N, 74.5003°W
Report Text: KACY 191654Z 31011KT 10SM OVC034 04/M04 A3006 RMK AO2 SLP180 T00391039
Loading
Personal Weather Stations






























Interactive Weather Map New forecast layout! Learn more

10-Day Weather Forecast

Advertisements
Track Severe Weather on mobile